Time,TemperatureF,DewpointF,PressureIn,WindDirection,WindDirectionDegrees,WindSpeedMPH,WindSpeedGustMPH,Humidity,HourlyPrecipIn,Conditions,Clouds,dailyrainin,SoftwareType,DateUTC
2013-03-10 00:09:00,10.1,4.6,29.50,North,-999,0.0,-999.0,78,-99.99,,,-99.99,Acu-Link.com,2013-03-10 07:09:00,
2013-03-10 00:24:00,10.1,4.4,29.50,North,-999,0.0,-999.0,77,-99.99,,,-99.99,Acu-Link.com,2013-03-10 07:24:00,
2013-03-10 00:40:00,10.0,4.5,29.51,North,-999,0.0,-999.0,78,-99.99,,,-99.99,Acu-Link.com,2013-03-10 07:40:00,
2013-03-10 00:55:00,9.9,4.4,29.51,North,-999,0.0,-999.0,78,-99.99,,,-99.99,Acu-Link.com,2013-03-10 07:55:00,
2013-03-10 01:10:00,10.0,4.3,29.51,North,-999,1.6,-999.0,77,-99.99,,,-99.99,Acu-Link.com,2013-03-10 08:10:00,
2013-03-10 01:25:00,10.2,3.9,29.51,North,-999,0.0,-999.0,75,-99.99,,,-99.99,Acu-Link.com,2013-03-10 08:25:00,
2013-03-10 01:40:00,9.5,3.8,29.51,North,-999,0.0,-999.0,77,-99.99,,,-99.99,Acu-Link.com,2013-03-10 08:40:00,
2013-03-10 01:56:00,9.6,3.9,29.51,North,-999,0.0,-999.0,77,-99.99,,,-99.99,Acu-Link.com,2013-03-10 08:56:00,
2013-03-10 03:11:00,9.4,3.4,29.51,North,-999,1.6,-999.0,76,-99.99,,,-99.99,Acu-Link.com,2013-03-10 09:11:00,
2013-03-10 03:26:00,9.1,3.1,29.51,North,-999,0.0,-999.0,76,-99.99,,,-99.99,Acu-Link.com,2013-03-10 09:26:00,
2013-03-10 03:41:00,9.0,2.7,29.51,North,-999,1.6,-999.0,75,-99.99,,,-99.99,Acu-Link.com,2013-03-10 09:41:00,
2013-03-10 03:56:00,9.0,3.0,29.50,North,-999,1.6,-999.0,76,-99.99,,,-99.99,Acu-Link.com,2013-03-10 09:56:00,
2013-03-10 04:12:00,8.8,2.8,29.50,North,-999,3.2,-999.0,76,-99.99,,,-99.99,Acu-Link.com,2013-03-10 10:12:00,
2013-03-10 04:27:00,8.6,2.6,29.51,North,-999,4.8,-999.0,76,-99.99,,,-99.99,Acu-Link.com,2013-03-10 10:27:00,
2013-03-10 04:42:00,8.6,2.6,29.52,North,-999,1.6,-999.0,76,-99.99,,,-99.99,Acu-Link.com,2013-03-10 10:42:00,
2013-03-10 04:58:00,8.8,2.8,29.52,North,-999,1.6,-999.0,76,-99.99,,,-99.99,Acu-Link.com,2013-03-10 10:58:00,
2013-03-10 05:13:00,8.1,2.1,29.53,North,-999,0.0,-999.0,76,-99.99,,,-99.99,Acu-Link.com,2013-03-10 11:13:00,
2013-03-10 05:28:00,8.0,2.3,29.53,North,-999,1.6,-999.0,77,-99.99,,,-99.99,Acu-Link.com,2013-03-10 11:28:00,
2013-03-10 05:44:00,7.9,1.9,29.53,North,-999,1.6,-999.0,76,-99.99,,,-99.99,Acu-Link.com,2013-03-10 11:44:00,
2013-03-10 05:59:00,7.7,1.5,29.54,North,-999,1.6,-999.0,75,-99.99,,,-99.99,Acu-Link.com,2013-03-10 11:59:00,
2013-03-10 06:14:00,7.5,1.5,29.54,North,-999,4.8,-999.0,76,-99.99,,,-99.99,Acu-Link.com,2013-03-10 12:14:00,
2013-03-10 06:29:00,7.8,1.6,29.54,North,-999,4.8,-999.0,75,-99.99,,,-99.99,Acu-Link.com,2013-03-10 12:29:00,
2013-03-10 06:44:00,7.0,1.3,29.54,North,-999,3.2,-999.0,77,-99.99,,,-99.99,Acu-Link.com,2013-03-10 12:44:00,
2013-03-10 07:00:00,7.0,1.3,29.54,North,-999,1.6,-999.0,77,-99.99,,,-99.99,Acu-Link.com,2013-03-10 13:00:00,
2013-03-10 07:15:00,6.8,1.1,29.55,North,-999,3.2,-999.0,77,-99.99,,,-99.99,Acu-Link.com,2013-03-10 13:15:00,
2013-03-10 07:30:00,6.8,1.1,29.55,North,-999,3.2,-999.0,77,-99.99,,,-99.99,Acu-Link.com,2013-03-10 13:30:00,
2013-03-10 07:45:00,7.2,1.8,29.55,North,-999,4.8,-999.0,78,-99.99,,,-99.99,Acu-Link.com,2013-03-10 13:45:00,
2013-03-10 08:00:00,7.8,2.1,29.56,North,-999,4.8,-999.0,77,-99.99,,,-99.99,Acu-Link.com,2013-03-10 14:00:00,
2013-03-10 08:16:00,8.5,3.1,29.56,North,-999,3.2,-999.0,78,-99.99,,,-99.99,Acu-Link.com,2013-03-10 14:16:00,
2013-03-10 08:31:00,9.3,3.3,29.57,North,-999,3.2,-999.0,76,-99.99,,,-99.99,Acu-Link.com,2013-03-10 14:31:00,
2013-03-10 08:46:00,10.2,3.6,29.57,North,-999,6.4,-999.0,74,-99.99,,,-99.99,Acu-Link.com,2013-03-10 14:46:00,
2013-03-10 09:01:00,12.0,3.2,29.58,North,-999,4.8,-999.0,67,-99.99,,,-99.99,Acu-Link.com,2013-03-10 15:01:00,
2013-03-10 09:16:00,14.2,3.6,29.59,North,-999,6.4,-999.0,62,-99.99,,,-99.99,Acu-Link.com,2013-03-10 15:16:00,
2013-03-10 09:32:00,16.2,4.1,29.59,North,-999,4.8,-999.0,58,-99.99,,,-99.99,Acu-Link.com,2013-03-10 15:32:00,
2013-03-10 09:47:00,18.0,4.2,29.59,North,-999,6.4,-999.0,54,-99.99,,,-99.99,Acu-Link.com,2013-03-10 15:47:00,
2013-03-10 10:02:00,20.3,5.1,29.60,North,-999,8.0,-999.0,51,-99.99,,,-99.99,Acu-Link.com,2013-03-10 16:02:00,
2013-03-10 10:18:00,22.7,6.0,29.61,North,-999,6.4,-999.0,48,-99.99,,,-99.99,Acu-Link.com,2013-03-10 16:18:00,
2013-03-10 10:33:00,24.7,6.9,29.61,North,-999,6.4,-999.0,46,-99.99,,,-99.99,Acu-Link.com,2013-03-10 16:33:00,
2013-03-10 10:48:00,26.2,7.3,29.62,North,-999,6.4,-999.0,44,-99.99,,,-99.99,Acu-Link.com,2013-03-10 16:48:00,
2013-03-10 11:03:00,27.7,8.7,29.62,North,-999,3.2,-999.0,44,-99.99,,,-99.99,Acu-Link.com,2013-03-10 17:03:00,
2013-03-10 11:18:00,31.4,12.0,29.61,North,-999,4.8,-999.0,44,-99.99,,,-99.99,Acu-Link.com,2013-03-10 17:18:00,
2013-03-10 11:34:00,32.9,12.4,29.62,North,-999,6.4,-999.0,42,-99.99,,,-99.99,Acu-Link.com,2013-03-10 17:34:00,
2013-03-10 11:49:00,32.2,11.2,29.61,North,-999,3.2,-999.0,41,-99.99,,,-99.99,Acu-Link.com,2013-03-10 17:49:00,
2013-03-10 12:04:00,35.4,14.1,29.61,North,-999,6.4,-999.0,41,-99.99,,,-99.99,Acu-Link.com,2013-03-10 18:04:00,
2013-03-10 12:19:00,34.9,14.2,29.61,North,-999,4.8,-999.0,42,-99.99,,,-99.99,Acu-Link.com,2013-03-10 18:19:00,
2013-03-10 12:35:00,34.9,14.2,29.62,North,-999,3.2,-999.0,42,-99.99,,,-99.99,Acu-Link.com,2013-03-10 18:35:00,
2013-03-10 12:50:00,34.5,13.8,29.62,North,-999,1.6,-999.0,42,-99.99,,,-99.99,Acu-Link.com,2013-03-10 18:50:00,
2013-03-10 13:05:00,38.0,16.4,29.62,North,-999,3.2,-999.0,41,-99.99,,,-99.99,Acu-Link.com,2013-03-10 19:05:00,
2013-03-10 13:20:00,38.1,14.2,29.61,North,-999,3.2,-999.0,37,-99.99,,,-99.99,Acu-Link.com,2013-03-10 19:20:00,
2013-03-10 13:36:00,31.3,10.9,29.61,North,-999,4.8,-999.0,42,-99.99,,,-99.99,Acu-Link.com,2013-03-10 19:36:00,
2013-03-10 13:51:00,35.2,14.4,29.61,North,-999,8.0,-999.0,42,-99.99,,,-99.99,Acu-Link.com,2013-03-10 19:51:00,
2013-03-10 14:06:00,38.1,16.5,29.61,North,-999,1.6,-999.0,41,-99.99,,,-99.99,Acu-Link.com,2013-03-10 20:06:00,
2013-03-10 14:21:00,42.8,17.7,29.62,North,-999,3.2,-999.0,36,-99.99,,,-99.99,Acu-Link.com,2013-03-10 20:21:00,
2013-03-10 14:52:00,36.1,16.3,29.61,North,-999,3.2,-999.0,44,-99.99,,,-99.99,Acu-Link.com,2013-03-10 20:52:00,
2013-03-10 15:07:00,41.1,19.2,29.60,North,-999,3.2,-999.0,41,-99.99,,,-99.99,Acu-Link.com,2013-03-10 21:07:00,
2013-03-10 15:22:00,43.3,18.8,29.61,North,-999,6.4,-999.0,37,-99.99,,,-99.99,Acu-Link.com,2013-03-10 21:22:00,
2013-03-10 15:38:00,43.0,20.4,29.62,North,-999,6.4,-999.0,40,-99.99,,,-99.99,Acu-Link.com,2013-03-10 21:38:00,
2013-03-10 15:53:00,39.8,18.0,29.63,North,-999,1.6,-999.0,41,-99.99,,,-99.99,Acu-Link.com,2013-03-10 21:53:00,
2013-03-10 16:08:00,44.8,22.0,29.62,North,-999,4.8,-999.0,40,-99.99,,,-99.99,Acu-Link.com,2013-03-10 22:08:00,
2013-03-10 16:23:00,41.7,18.0,29.62,North,-999,1.6,-999.0,38,-99.99,,,-99.99,Acu-Link.com,2013-03-10 22:23:00,
2013-03-10 16:39:00,40.5,18.7,29.61,North,-999,3.2,-999.0,41,-99.99,,,-99.99,Acu-Link.com,2013-03-10 22:39:00,
2013-03-10 16:54:00,29.2,12.0,29.63,North,-999,0.0,-999.0,48,-99.99,,,-99.99,Acu-Link.com,2013-03-10 22:54:00,
2013-03-10 17:09:00,35.4,17.7,29.62,North,-999,3.2,-999.0,48,-99.99,,,-99.99,Acu-Link.com,2013-03-10 23:09:00,
2013-03-10 17:24:00,30.8,13.0,29.62,North,-999,3.2,-999.0,47,-99.99,,,-99.99,Acu-Link.com,2013-03-10 23:24:00,
2013-03-10 17:40:00,28.4,12.2,29.62,North,-999,4.8,-999.0,50,-99.99,,,-99.99,Acu-Link.com,2013-03-10 23:40:00,
2013-03-10 17:55:00,27.4,11.7,29.62,North,-999,1.6,-999.0,51,-99.99,,,-99.99,Acu-Link.com,2013-03-10 23:55:00,
2013-03-10 18:10:00,26.2,11.4,29.62,North,-999,0.0,-999.0,53,-99.99,,,-99.99,Acu-Link.com,2013-03-11 00:10:00,
2013-03-10 18:25:00,24.1,10.7,29.62,North,-999,6.4,-999.0,56,-99.99,,,-99.99,Acu-Link.com,2013-03-11 00:25:00,
2013-03-10 18:41:00,22.6,10.5,29.62,North,-999,3.2,-999.0,59,-99.99,,,-99.99,Acu-Link.com,2013-03-11 00:41:00,
2013-03-10 19:26:00,19.4,8.9,29.61,North,-999,0.0,-999.0,63,-99.99,,,-99.99,Acu-Link.com,2013-03-11 01:26:00,
2013-03-10 20:12:00,16.8,7.8,29.61,North,-999,0.0,-999.0,67,-99.99,,,-99.99,Acu-Link.com,2013-03-11 02:12:00,
2013-03-10 20:27:00,17.1,8.4,29.62,North,-999,0.0,-999.0,68,-99.99,,,-99.99,Acu-Link.com,2013-03-11 02:27:00,
2013-03-10 20:42:00,17.3,8.6,29.62,North,-999,0.0,-999.0,68,-99.99,,,-99.99,Acu-Link.com,2013-03-11 02:42:00,
2013-03-10 20:57:00,16.6,8.2,29.62,North,-999,0.0,-999.0,69,-99.99,,,-99.99,Acu-Link.com,2013-03-11 02:57:00,
2013-03-10 21:13:00,16.1,8.1,29.62,North,-999,0.0,-999.0,70,-99.99,,,-99.99,Acu-Link.com,2013-03-11 03:13:00,
2013-03-10 21:28:00,16.8,8.7,29.62,North,-999,1.6,-999.0,70,-99.99,,,-99.99,Acu-Link.com,2013-03-11 03:28:00,
2013-03-10 21:43:00,15.5,7.8,29.62,North,-999,0.0,-999.0,71,-99.99,,,-99.99,Acu-Link.com,2013-03-11 03:43:00,
2013-03-10 21:59:00,15.1,7.7,29.62,North,-999,0.0,-999.0,72,-99.99,,,-99.99,Acu-Link.com,2013-03-11 03:59:00,
2013-03-10 22:14:00,14.7,7.6,29.61,North,-999,0.0,-999.0,73,-99.99,,,-99.99,Acu-Link.com,2013-03-11 04:14:00,
2013-03-10 22:29:00,14.2,7.5,29.61,North,-999,0.0,-999.0,74,-99.99,,,-99.99,Acu-Link.com,2013-03-11 04:29:00,
2013-03-10 22:44:00,16.1,9.6,29.61,North,-999,0.0,-999.0,75,-99.99,,,-99.99,Acu-Link.com,2013-03-11 04:44:00,
2013-03-10 22:59:00,16.0,9.2,29.61,North,-999,0.0,-999.0,74,-99.99,,,-99.99,Acu-Link.com,2013-03-11 04:59:00,
2013-03-10 23:15:00,15.3,8.5,29.61,North,-999,0.0,-999.0,74,-99.99,,,-99.99,Acu-Link.com,2013-03-11 05:15:00,
2013-03-10 23:30:00,14.7,8.2,29.61,North,-999,0.0,-999.0,75,-99.99,,,-99.99,Acu-Link.com,2013-03-11 05:30:00,
2013-03-10 23:45:00,15.1,8.6,29.60,North,-999,0.0,-999.0,75,-99.99,,,-99.99,Acu-Link.com,2013-03-11 05:45:00,